createdAt,value
2023-02-25T00:02:04.724Z,8.50
2023-02-25T00:05:14.951Z,9.32
2023-02-25T00:08:20.107Z,8.88
2023-02-25T00:11:25.530Z,8.02
2023-02-25T00:14:30.992Z,5.90
2023-02-25T00:17:35.932Z,3.08
2023-02-25T00:20:45.036Z,1.30
2023-02-25T00:23:50.705Z,0.65
2023-02-25T00:26:57.629Z,0.93
2023-02-25T00:30:02.399Z,0.75
2023-02-25T00:33:11.194Z,0.60
2023-02-25T00:36:20.404Z,1.02
2023-02-25T00:39:42.115Z,0.80
2023-02-25T00:42:46.977Z,1.20
2023-02-25T00:45:52.133Z,1.02
2023-02-25T00:48:57.054Z,0.82
2023-02-25T00:52:04.808Z,0.77
2023-02-25T00:55:10.272Z,1.10
2023-02-25T00:58:15.456Z,1.17
2023-02-25T01:01:21.526Z,0.90
2023-02-25T01:04:27.040Z,1.10
2023-02-25T01:07:34.947Z,1.50
2023-02-25T01:10:40.086Z,1.63
2023-02-25T01:13:46.365Z,0.75
2023-02-25T01:16:52.154Z,1.02
2023-02-25T01:19:57.772Z,0.65
2023-02-25T01:23:05.525Z,1.00
2023-02-25T01:26:10.312Z,0.70
2023-02-25T01:29:16.803Z,0.63
2023-02-25T01:32:21.705Z,0.82
2023-02-25T01:35:26.959Z,0.68
2023-02-25T01:38:34.328Z,0.90
2023-02-25T01:41:39.971Z,0.75
2023-02-25T01:45:05.590Z,1.30
2023-02-25T01:48:14.056Z,1.00
2023-02-25T01:51:18.844Z,1.02
2023-02-25T01:54:28.588Z,0.88
2023-02-25T01:57:33.420Z,0.93
2023-02-25T02:00:39.306Z,0.95
2023-02-25T02:03:46.310Z,1.33
2023-02-25T02:06:52.323Z,0.90
2023-02-25T02:10:00.687Z,1.00
2023-02-25T02:13:05.821Z,0.90
2023-02-25T02:16:16.826Z,0.90
2023-02-25T02:19:27.308Z,0.93
2023-02-25T02:22:35.922Z,0.85
2023-02-25T02:25:51.737Z,0.82
2023-02-25T02:29:20.463Z,0.90
2023-02-25T02:32:34.105Z,0.60
2023-02-25T02:35:42.869Z,1.27
2023-02-25T02:38:52.203Z,1.00
2023-02-25T02:42:01.323Z,0.70
2023-02-25T02:45:11.782Z,0.70
2023-02-25T02:48:21.229Z,0.80
2023-02-25T02:51:28.500Z,0.70
2023-02-25T02:54:35.190Z,0.80
2023-02-25T02:57:44.254Z,0.80
2023-02-25T03:00:51.243Z,0.80
2023-02-25T03:04:02.614Z,0.70
2023-02-25T03:07:09.913Z,0.60
2023-02-25T03:10:18.385Z,0.73
2023-02-25T03:13:23.334Z,0.90
2023-02-25T03:16:30.845Z,0.80
2023-02-25T03:19:40.797Z,1.05
2023-02-25T03:22:49.064Z,0.75
2023-02-25T03:25:54.990Z,0.77
2023-02-25T03:29:00.402Z,0.77
2023-02-25T03:32:07.203Z,0.70
2023-02-25T03:35:15.924Z,1.17
2023-02-25T03:38:23.101Z,0.90
2023-02-25T03:41:29.959Z,0.80
2023-02-25T03:44:36.306Z,0.68
2023-02-25T03:47:42.390Z,0.98
2023-02-25T03:50:50.857Z,0.95
2023-02-25T03:53:55.980Z,0.90
2023-02-25T03:57:00.908Z,0.82
2023-02-25T04:00:15.918Z,0.82
2023-02-25T04:03:20.721Z,1.10
2023-02-25T04:06:28.600Z,1.23
2023-02-25T04:09:33.364Z,1.20
2023-02-25T04:12:38.456Z,1.30
2023-02-25T04:15:43.296Z,1.08
2023-02-25T04:18:48.448Z,0.80
2023-02-25T04:21:55.832Z,0.98
2023-02-25T04:25:00.914Z,1.00
2023-02-25T04:28:05.751Z,0.70
2023-02-25T04:31:10.924Z,0.70
2023-02-25T04:34:15.951Z,0.65
2023-02-25T04:37:23.703Z,0.88
2023-02-25T04:40:28.620Z,0.80
2023-02-25T04:43:33.974Z,1.00
2023-02-25T04:46:39.726Z,1.30
2023-02-25T04:49:47.582Z,0.80
2023-02-25T04:52:55.096Z,1.17
2023-02-25T04:56:00.210Z,0.70
2023-02-25T04:59:04.970Z,1.10
2023-02-25T05:02:10.644Z,0.60
2023-02-25T05:05:15.824Z,0.80
2023-02-25T05:08:23.590Z,0.80
2023-02-25T05:11:29.523Z,0.70
2023-02-25T05:14:35.161Z,1.00
2023-02-25T05:17:39.897Z,0.52
2023-02-25T05:20:45.405Z,0.30
2023-02-25T05:23:53.922Z,0.40
2023-02-25T05:27:04.929Z,0.30
2023-02-25T05:30:10.506Z,0.30
2023-02-25T05:33:17.792Z,0.30
2023-02-25T05:36:25.245Z,0.35
2023-02-25T05:39:34.469Z,0.40
2023-02-25T05:42:40.201Z,0.30
2023-02-25T05:45:45.381Z,0.30
2023-02-25T05:48:50.122Z,0.40
2023-02-25T05:51:55.356Z,0.50
2023-02-25T05:55:02.926Z,0.50
2023-02-25T05:58:08.040Z,0.55
2023-02-25T06:01:13.735Z,0.57
2023-02-25T06:04:18.905Z,0.40
2023-02-25T06:07:23.713Z,0.65
2023-02-25T06:10:38.594Z,0.65
2023-02-25T06:13:43.571Z,0.47
2023-02-25T06:16:49.110Z,0.40
2023-02-25T06:19:54.273Z,0.40
2023-02-25T06:22:59.357Z,0.43
2023-02-25T06:26:08.033Z,0.70
2023-02-25T06:29:13.484Z,0.70
2023-02-25T06:32:18.617Z,0.52
2023-02-25T06:35:23.794Z,0.60
2023-02-25T06:38:28.652Z,1.30
2023-02-25T06:41:36.593Z,0.88
2023-02-25T06:44:43.179Z,0.95
2023-02-25T06:47:48.261Z,0.80
2023-02-25T06:50:53.326Z,1.00
2023-02-25T06:53:58.526Z,0.80
2023-02-25T06:57:05.913Z,1.52
2023-02-25T07:00:11.893Z,1.13
2023-02-25T07:03:17.611Z,1.60
2023-02-25T07:06:23.235Z,0.88
2023-02-25T07:09:28.290Z,1.05
2023-02-25T07:12:36.097Z,1.45
2023-02-25T07:15:40.933Z,1.10
2023-02-25T07:18:46.688Z,0.90
2023-02-25T07:21:51.848Z,0.93
2023-02-25T07:24:58.617Z,0.70
2023-02-25T07:28:06.181Z,0.85
2023-02-25T07:31:13.181Z,0.88
2023-02-25T07:34:18.086Z,1.05
2023-02-25T07:37:23.224Z,1.00
2023-02-25T07:40:28.031Z,1.30
2023-02-25T07:43:35.832Z,0.80
2023-02-25T07:46:41.217Z,1.38
2023-02-25T07:49:46.382Z,1.10
2023-02-25T07:52:51.147Z,1.50
2023-02-25T07:55:56.293Z,1.58
2023-02-25T07:59:03.876Z,1.23
2023-02-25T08:02:10.446Z,1.05
2023-02-25T08:05:15.290Z,1.30
2023-02-25T08:08:20.452Z,1.23
2023-02-25T08:11:26.265Z,1.02
2023-02-25T08:14:34.230Z,1.88
2023-02-25T08:17:38.952Z,1.33
2023-02-25T08:20:48.183Z,0.93
2023-02-25T08:23:53.136Z,1.75
2023-02-25T08:26:58.277Z,1.17
2023-02-25T08:30:07.077Z,1.77
2023-02-25T08:33:12.186Z,1.67
2023-02-25T08:36:18.175Z,1.33
2023-02-25T08:39:23.332Z,1.45
2023-02-25T08:42:28.255Z,1.50
2023-02-25T08:45:36.265Z,1.20
2023-02-25T08:48:41.202Z,2.17
2023-02-25T08:51:46.355Z,1.30
2023-02-25T08:54:51.567Z,1.92
2023-02-25T08:57:56.949Z,1.25
2023-02-25T09:01:09.242Z,1.05
2023-02-25T09:04:14.705Z,1.60
2023-02-25T09:07:20.657Z,2.03
2023-02-25T09:10:25.803Z,1.70
2023-02-25T09:13:30.744Z,1.80
2023-02-25T09:16:38.762Z,1.30
2023-02-25T09:19:43.548Z,1.90
2023-02-25T09:22:48.683Z,2.53
2023-02-25T09:25:53.781Z,2.42
2023-02-25T09:28:58.949Z,1.73
2023-02-25T09:32:06.996Z,2.28
2023-02-25T09:35:12.703Z,1.08
2023-02-25T09:38:17.635Z,1.63
2023-02-25T09:41:28.220Z,2.20
2023-02-25T09:44:33.880Z,1.80
2023-02-25T09:47:45.119Z,1.80
2023-02-25T09:50:52.195Z,1.40
2023-02-25T09:53:59.851Z,1.60
2023-02-25T09:57:06.027Z,1.98
2023-02-25T10:00:18.688Z,1.67
2023-02-25T10:03:29.713Z,1.73
2023-02-25T10:06:37.227Z,1.58
2023-02-25T10:09:46.487Z,1.27
2023-02-25T10:12:55.946Z,1.67
2023-02-25T10:16:06.271Z,2.00
2023-02-25T10:19:22.480Z,1.92
2023-02-25T10:22:35.473Z,1.05
2023-02-25T10:25:42.730Z,1.52
2023-02-25T10:28:50.385Z,1.58
2023-02-25T10:31:57.755Z,1.85
2023-02-25T10:35:15.064Z,1.40
2023-02-25T10:38:20.220Z,1.30
2023-02-25T10:41:26.826Z,1.48
2023-02-25T10:44:32.062Z,3.10
2023-02-25T10:47:39.933Z,1.42
2023-02-25T10:51:03.683Z,1.75
2023-02-25T10:54:10.054Z,1.65
2023-02-25T10:57:17.406Z,1.90
2023-02-25T11:00:26.057Z,1.88
2023-02-25T11:03:33.250Z,1.33
2023-02-25T11:06:41.652Z,1.63
2023-02-25T11:09:47.017Z,1.85
2023-02-25T11:12:53.185Z,0.75
2023-02-25T11:15:58.396Z,1.13
2023-02-25T11:19:04.312Z,1.80
2023-02-25T11:22:13.996Z,1.17
2023-02-25T11:25:19.562Z,1.80
2023-02-25T11:28:29.172Z,1.75
2023-02-25T11:31:37.788Z,1.75
2023-02-25T11:34:49.963Z,2.10
2023-02-25T11:37:58.703Z,1.10
2023-02-25T11:41:04.259Z,1.23
2023-02-25T11:44:19.557Z,2.30
2023-02-25T11:47:25.967Z,1.65
2023-02-25T11:50:32.362Z,0.95
2023-02-25T11:53:47.204Z,1.00
2023-02-25T11:56:53.947Z,1.27
2023-02-25T12:00:03.916Z,1.10
2023-02-25T12:03:18.540Z,1.23
2023-02-25T12:06:38.419Z,1.95
2023-02-25T12:10:08.260Z,2.22
2023-02-25T12:13:28.326Z,2.13
2023-02-25T12:17:00.325Z,1.00
2023-02-25T12:20:19.428Z,1.43
2023-02-25T12:23:45.115Z,1.45
2023-02-25T12:27:02.464Z,1.42
2023-02-25T12:30:25.239Z,2.13
2023-02-25T12:36:51.560Z,0.98
2023-02-25T12:40:05.544Z,1.23
2023-02-25T12:43:19.367Z,1.05
2023-02-25T12:46:29.299Z,1.42
2023-02-25T12:49:54.918Z,0.90
2023-02-25T12:53:13.770Z,0.80
2023-02-25T12:56:36.352Z,1.15
2023-02-25T13:00:03.045Z,0.98
2023-02-25T13:03:21.422Z,1.38
2023-02-25T13:06:41.344Z,0.73
2023-02-25T13:09:53.993Z,1.10
2023-02-25T13:13:06.630Z,0.98
2023-02-25T13:16:21.557Z,1.17
2023-02-25T13:19:46.477Z,1.08
2023-02-25T13:22:56.334Z,1.00
2023-02-25T13:26:13.668Z,0.82
2023-02-25T13:29:25.477Z,1.13
2023-02-25T13:32:36.139Z,0.88
2023-02-25T13:35:48.936Z,0.68
2023-02-25T13:39:06.346Z,0.70
2023-02-25T13:42:26.378Z,1.13
2023-02-25T13:45:55.240Z,0.82
2023-02-25T13:49:12.441Z,0.85
2023-02-25T13:52:24.217Z,0.80
2023-02-25T13:55:39.853Z,0.90
2023-02-25T13:58:54.760Z,1.10
2023-02-25T14:02:04.062Z,1.10
2023-02-25T14:05:17.316Z,0.80
2023-02-25T14:11:37.073Z,0.75
2023-02-25T14:14:50.389Z,1.25
2023-02-25T14:18:00.414Z,1.38
2023-02-25T14:21:21.400Z,1.40
2023-02-25T14:24:31.708Z,1.05
2023-02-25T14:27:39.845Z,1.00
2023-02-25T14:30:54.648Z,1.48
2023-02-25T14:34:17.272Z,1.65
2023-02-25T14:37:40.552Z,1.45
2023-02-25T14:40:50.194Z,0.85
2023-02-25T14:43:58.905Z,0.63
2023-02-25T14:47:04.638Z,1.08
2023-02-25T14:50:14.793Z,0.70
2023-02-25T14:53:35.267Z,0.80
2023-02-25T14:56:58.359Z,0.65
2023-02-25T15:00:13.785Z,0.50
2023-02-25T15:03:29.856Z,0.80
2023-02-25T15:06:46.201Z,0.70
2023-02-25T15:10:10.740Z,1.42
2023-02-25T15:13:39.293Z,1.13
2023-02-25T15:16:59.203Z,1.25
2023-02-25T15:20:24.983Z,1.45
2023-02-25T15:23:46.329Z,1.40
2023-02-25T15:26:54.679Z,1.88
2023-02-25T15:30:02.881Z,1.85
2023-02-25T15:33:18.196Z,1.50
2023-02-25T15:36:24.967Z,1.42
2023-02-25T15:39:44.865Z,1.33
2023-02-25T15:42:55.438Z,1.42
2023-02-25T15:46:28.368Z,1.88
2023-02-25T15:49:36.325Z,0.75
2023-02-25T15:52:56.264Z,1.30
2023-02-25T15:56:17.059Z,1.35
2023-02-25T15:59:37.019Z,1.10
2023-02-25T16:02:46.967Z,1.40
2023-02-25T16:05:53.893Z,0.75
2023-02-25T16:09:04.923Z,0.90
2023-02-25T16:12:10.770Z,0.93
2023-02-25T16:15:18.543Z,0.80
2023-02-25T16:18:28.691Z,0.88
2023-02-25T16:21:41.419Z,0.80
2023-02-25T16:24:50.869Z,0.93
2023-02-25T16:27:59.321Z,0.80
2023-02-25T16:31:10.133Z,1.17
2023-02-25T16:34:34.250Z,1.40
2023-02-25T16:37:47.177Z,1.42
2023-02-25T16:40:56.496Z,1.33
2023-02-25T16:44:04.734Z,1.17
2023-02-25T16:47:22.621Z,0.80
2023-02-25T16:50:37.884Z,1.17
2023-02-25T16:53:45.873Z,1.33
2023-02-25T16:56:55.484Z,1.27
2023-02-25T17:00:16.716Z,1.30
2023-02-25T17:03:22.269Z,1.45
2023-02-25T17:06:31.138Z,0.75
2023-02-25T17:09:37.954Z,1.40
2023-02-25T17:12:53.601Z,0.75
2023-02-25T17:16:00.967Z,1.05
2023-02-25T17:19:08.082Z,1.17
2023-02-25T17:22:18.368Z,1.20
2023-02-25T17:25:29.359Z,1.15
2023-02-25T17:28:35.640Z,1.17
2023-02-25T17:31:46.499Z,1.00
2023-02-25T17:34:56.597Z,1.30
2023-02-25T17:38:09.252Z,1.15
2023-02-25T17:41:18.495Z,0.95
2023-02-25T17:44:39.647Z,1.27
2023-02-25T17:47:47.016Z,1.20
2023-02-25T17:50:56.661Z,1.55
2023-02-25T17:54:07.737Z,1.63
2023-02-25T17:57:20.057Z,1.00
2023-02-25T18:00:27.290Z,0.93
2023-02-25T18:03:33.322Z,1.20
2023-02-25T18:06:43.209Z,1.20
2023-02-25T18:09:51.995Z,1.10
2023-02-25T18:12:59.158Z,1.17
2023-02-25T18:16:23.675Z,0.75
2023-02-25T18:19:30.668Z,0.70
2023-02-25T18:22:37.855Z,1.02
2023-02-25T18:25:47.119Z,0.70
2023-02-25T18:28:53.327Z,1.20
2023-02-25T18:31:58.773Z,1.17
2023-02-25T18:35:07.902Z,1.35
2023-02-25T18:38:14.522Z,1.00
2023-02-25T18:41:25.535Z,0.93
2023-02-25T18:44:30.921Z,0.90
2023-02-25T18:47:36.593Z,1.10
2023-02-25T18:50:45.067Z,1.13
2023-02-25T18:53:53.594Z,0.98
2023-02-25T18:57:03.468Z,0.77
2023-02-25T19:00:11.044Z,1.00
2023-02-25T19:03:18.461Z,1.02
2023-02-25T19:06:25.877Z,0.80
2023-02-25T19:09:31.643Z,1.27
2023-02-25T19:12:43.061Z,0.75
2023-02-25T19:15:48.578Z,0.68
2023-02-25T19:18:55.403Z,0.70
2023-02-25T19:22:00.509Z,1.42
2023-02-25T19:25:06.496Z,1.63
2023-02-25T19:28:18.284Z,0.90
2023-02-25T19:31:24.948Z,0.80
2023-02-25T19:34:31.703Z,1.15
2023-02-25T19:37:40.509Z,1.35
2023-02-25T19:40:48.124Z,1.02
2023-02-25T19:43:57.651Z,1.15
2023-02-25T19:47:04.673Z,0.95
2023-02-25T19:50:12.041Z,1.02
2023-02-25T19:53:20.646Z,1.02
2023-02-25T19:56:27.330Z,1.52
2023-02-25T19:59:36.671Z,0.90
2023-02-25T20:02:47.029Z,1.00
2023-02-25T20:05:52.497Z,1.10
2023-02-25T20:09:02.249Z,1.00
2023-02-25T20:12:07.907Z,0.90
2023-02-25T20:15:23.805Z,0.90
2023-02-25T20:18:31.028Z,0.95
2023-02-25T20:21:38.326Z,0.95
2023-02-25T20:24:45.719Z,0.88
2023-02-25T20:27:51.032Z,0.82
2023-02-25T20:31:13.628Z,1.23
2023-02-25T20:34:26.505Z,1.20
2023-02-25T20:37:37.389Z,0.73
2023-02-25T20:40:44.005Z,1.35
2023-02-25T20:43:51.494Z,1.05
2023-02-25T20:46:58.400Z,1.30
2023-02-25T20:50:17.626Z,1.58
2023-02-25T20:53:23.514Z,1.13
2023-02-25T20:56:34.598Z,1.10
2023-02-25T20:59:41.880Z,1.08
2023-02-25T21:02:47.023Z,1.48
2023-02-25T21:05:55.697Z,1.25
2023-02-25T21:09:01.392Z,1.75
2023-02-25T21:12:09.940Z,1.20
2023-02-25T21:15:16.309Z,1.08
2023-02-25T21:18:29.151Z,1.38
2023-02-25T21:21:40.041Z,0.90
2023-02-25T21:24:47.046Z,1.25
2023-02-25T21:27:52.208Z,0.88
2023-02-25T21:31:07.510Z,0.98
2023-02-25T21:34:14.133Z,1.48
2023-02-25T21:37:22.470Z,1.25
2023-02-25T21:40:27.639Z,1.15
2023-02-25T21:43:33.348Z,1.98
2023-02-25T21:46:43.165Z,1.10
2023-02-25T21:49:50.453Z,0.80
2023-02-25T21:52:58.502Z,1.20
2023-02-25T21:56:10.841Z,0.80
2023-02-25T22:02:25.160Z,1.00
2023-02-25T22:05:30.710Z,1.10
2023-02-25T22:08:39.479Z,0.98
2023-02-25T22:11:44.804Z,1.20
2023-02-25T22:14:50.486Z,1.30
2023-02-25T22:17:55.863Z,2.20
2023-02-25T22:21:08.879Z,0.65
2023-02-25T22:24:18.601Z,2.05
2023-02-25T22:27:25.484Z,1.17
2023-02-25T22:30:30.833Z,1.10
2023-02-25T22:33:36.735Z,1.33
2023-02-25T22:36:42.595Z,1.13
2023-02-25T22:39:59.086Z,1.10
2023-02-25T22:43:04.359Z,1.58
2023-02-25T22:46:10.492Z,1.20
2023-02-25T22:49:16.098Z,1.50
2023-02-25T22:52:21.606Z,0.70
2023-02-25T22:55:29.873Z,1.33
2023-02-25T22:58:37.261Z,0.75
2023-02-25T23:01:45.161Z,1.00
2023-02-25T23:04:51.716Z,0.98
2023-02-25T23:07:56.871Z,0.70
2023-02-25T23:11:12.820Z,1.00
2023-02-25T23:14:18.535Z,0.68
2023-02-25T23:17:24.208Z,1.15
2023-02-25T23:20:29.161Z,0.88
2023-02-25T23:23:42.752Z,0.95
2023-02-25T23:26:53.830Z,0.70
2023-02-25T23:30:01.408Z,0.70
2023-02-25T23:33:12.400Z,1.35
2023-02-25T23:36:17.858Z,1.95
2023-02-25T23:39:22.782Z,1.13
2023-02-25T23:42:31.184Z,0.77
2023-02-25T23:45:36.117Z,0.98
2023-02-25T23:48:42.116Z,1.25
2023-02-25T23:51:47.856Z,1.30
2023-02-25T23:54:57.447Z,1.13
2023-02-25T23:58:06.050Z,0.90
